WC StCyr

Date de la prise de vue : 14/05/2021 08:28:44
Et voilĂ  le METAR et le TAF :
2021/05/14 06:00 LFPN 140600Z AUTO 21008KT 9999 SCT032 OVC042 09/08 Q1007 TEMPO BKN007 SCT020TCU
2021/05/14 06:25 TAF LFPN 140500Z 1406/1415 21007KT 9999 BKN020 TEMPO 1406/1410 BKN012 PROB40 TEMPO 1406/1409 -RA BKN007 SCT020TCU TEMPO 1410/1415 4000 -SHRA BKN020TCU PROB40 TEMPO 1412/1415 TSRA SCT025CB